Aviation Digital Data Service (ADDS)

Output produced by METARs form (2325 UTC 18 October 2019)
found at http://www.aviationweather.gov/metar/data/
 
Forecast for: UBBB (BAKU/BINE ARPT , AZ)
Text: TAF UBBB 182307Z 1900/1924 32006KT 1200 BR SCT005 SCT020 TX23/1909Z TN14/1901Z
Forecast period: 0000 to 0400 UTC 19 October 2019
Forecast type: FROM: standard forecast or significant change
Winds: from the NW (320 degrees) at 7 MPH (6 knots; 3.1 m/s)
Visibility: 0.75 miles (1.21 km)
Ceiling: at least 12,000 feet AGL
Clouds: scattered clouds at 500 feet AGL
scattered clouds at 2000 feet AGL
Weather: BR  (mist)
Text: TEMPO 1900/1904 VRB04KT 0400 FG BKN003
Forecast period: 0000 to 0400 UTC 19 October 2019
Forecast type: TEMPORARY: The following changes expected for less than half the time period
Winds: variable direction winds at 5 MPH (4 knots; 2.1 m/s)
Visibility: 0.25 miles (0.40 km)
Ceiling: 300 feet AGL
Clouds: broken clouds at 300 feet AGL
Weather: FG  (fog)
Text: BECMG 1904/1906 35010KT 9999 NSW SCT020
Forecast period: 0400 UTC 19 October 2019 to 0000 UTC 20 October 2019
Forecast type: BECOMING: Conditions expected to become as follows by 0600 UTC 19 October 2019
Winds: from the N (350 degrees) at 12 MPH (10 knots; 5.1 m/s)
Visibility: 6 or more miles 10+ km)
Ceiling: at least 12,000 feet AGL
Clouds: scattered clouds at 2000 feet AGL
Weather: NSW  (no significant weather)